Time;durP1;ratioP1;P1;durP2;ratioP2;P2;SDS_P1;SDS_P2;PMS_P1;PMS_P2;Temp;Humidity;BMP_temperature;BMP_pressure;BME280_temperature;BME280_humidity;BME280_pressure;Samples;Min_cycle;Max_cycle;Signal;HPM_P1;HPM_P2
2022/05/08 00:02:19;;;;;;;24.23;21.70;;;10.40;99.90;;;;;;5084930;28;20471;-63
2022/05/08 00:04:49;;;;;;;24.80;22.47;;;10.40;99.90;;;;;;5090294;28;20481;-63
2022/05/08 00:07:16;;;;;;;26.83;24.00;;;10.40;99.90;;;;;;5083745;28;20450;-64
2022/05/08 00:09:43;;;;;;;39.40;35.60;;;10.40;99.90;;;;;;5089809;28;20457;-63
2022/05/08 00:12:12;;;;;;;38.33;34.63;;;10.40;99.90;;;;;;5089898;28;20476;-63
2022/05/08 00:14:39;;;;;;;37.07;33.30;;;10.40;99.90;;;;;;5089855;28;20446;-63
2022/05/08 00:17:06;;;;;;;30.53;27.53;;;10.30;99.90;;;;;;5090261;28;20452;-63
2022/05/08 00:19:33;;;;;;;31.90;28.97;;;10.30;99.90;;;;;;5089816;28;20496;-63
2022/05/08 00:22:00;;;;;;;24.43;21.80;;;10.20;99.90;;;;;;5089597;28;20478;-64
2022/05/08 00:24:27;;;;;;;23.70;21.60;;;10.20;99.90;;;;;;5090055;28;20545;-63
2022/05/08 00:26:53;;;;;;;23.43;21.33;;;10.20;99.90;;;;;;5089768;28;20442;-63
2022/05/08 00:29:22;;;;;;;23.53;21.07;;;10.10;99.90;;;;;;5087658;28;20481;-63
2022/05/08 00:31:48;;;;;;;23.53;21.10;;;10.00;99.90;;;;;;5083160;28;20470;-63
2022/05/08 00:34:15;;;;;;;26.53;22.27;;;9.90;99.90;;;;;;5079216;28;20955;-64
2022/05/08 00:36:42;;;;;;;24.07;21.77;;;9.90;99.90;;;;;;5089475;28;20852;-63
2022/05/08 00:39:09;;;;;;;24.60;22.13;;;9.90;99.90;;;;;;5088974;28;20508;-63
2022/05/08 00:41:36;;;;;;;23.27;21.07;;;9.80;99.90;;;;;;5088844;28;20862;-63
2022/05/08 00:44:03;;;;;;;22.60;20.43;;;9.80;99.90;;;;;;5089763;28;20456;-64
2022/05/08 00:46:32;;;;;;;23.23;20.93;;;9.80;99.90;;;;;;5089346;28;20926;-63
2022/05/08 00:48:59;;;;;;;25.07;22.57;;;9.90;99.90;;;;;;5089616;28;20443;-63
2022/05/08 00:51:28;;;;;;;23.90;21.60;;;9.80;99.90;;;;;;5088956;28;20474;-63
2022/05/08 00:53:58;;;;;;;25.80;23.37;;;9.80;99.90;;;;;;5089605;28;20515;-64
2022/05/08 00:56:25;;;;;;;25.53;22.90;;;9.80;99.90;;;;;;5089513;28;20473;-63
2022/05/08 00:58:52;;;;;;;31.17;28.03;;;9.70;99.90;;;;;;5089503;28;20481;-64
2022/05/08 01:01:19;;;;;;;29.93;27.03;;;9.60;99.90;;;;;;5084170;28;20480;-64
2022/05/08 01:03:48;;;;;;;26.47;23.77;;;9.70;99.90;;;;;;5087117;28;21119;-63
2022/05/08 01:06:16;;;;;;;25.63;22.87;;;9.70;99.90;;;;;;5088642;28;20851;-63
2022/05/08 01:08:44;;;;;;;24.73;22.33;;;9.70;99.90;;;;;;5084799;28;20448;-64
2022/05/08 01:11:12;;;;;;;25.67;23.13;;;9.70;99.90;;;;;;5088979;28;20462;-64
2022/05/08 01:13:40;;;;;;;24.60;22.00;;;9.70;99.90;;;;;;5089262;28;20443;-64
2022/05/08 01:16:09;;;;;;;24.00;21.70;;;9.80;99.90;;;;;;5082847;28;20450;-64
2022/05/08 01:18:36;;;;;;;24.27;21.97;;;9.70;99.90;;;;;;5088531;28;20476;-64
2022/05/08 01:21:04;;;;;;;22.67;20.57;;;9.60;99.90;;;;;;5088814;28;20553;-64
2022/05/08 01:23:32;;;;;;;23.83;21.57;;;9.60;99.90;;;;;;5089170;28;20457;-65
2022/05/08 01:25:59;;;;;;;22.97;20.57;;;9.60;99.90;;;;;;5081250;28;20453;-64
2022/05/08 01:28:29;;;;;;;23.43;21.23;;;9.60;99.90;;;;;;5088600;28;20448;-64
2022/05/08 01:30:57;;;;;;;26.13;23.53;;;9.60;99.90;;;;;;5088822;28;20541;-64
2022/05/08 01:33:24;;;;;;;24.87;22.40;;;9.60;99.90;;;;;;5089279;28;20533;-64
2022/05/08 01:35:52;;;;;;;23.10;20.70;;;9.60;99.90;;;;;;5088932;28;20449;-64
2022/05/08 01:38:21;;;;;;;24.50;22.20;;;9.50;99.90;;;;;;5089472;28;20446;-64
2022/05/08 01:40:50;;;;;;;24.47;21.90;;;9.40;99.90;;;;;;5088741;28;20500;-64
2022/05/08 01:43:17;;;;;;;26.57;23.97;;;9.40;99.90;;;;;;5082912;28;20466;-64
2022/05/08 01:45:44;;;;;;;25.03;22.50;;;9.30;99.90;;;;;;5084206;28;20438;-64
2022/05/08 01:48:22;;;;;;;25.57;22.97;;;9.20;99.90;;;;;;5083603;28;20449;-64
2022/05/08 01:50:50;;;;;;;26.27;23.57;;;9.10;99.90;;;;;;5082506;28;20532;-64
2022/05/08 01:53:18;;;;;;;26.60;23.97;;;9.20;99.90;;;;;;5086877;28;20468;-64
2022/05/08 01:55:45;;;;;;;27.10;24.40;;;9.20;99.90;;;;;;5086667;28;20438;-64
2022/05/08 01:58:13;;;;;;;27.00;24.30;;;9.20;99.90;;;;;;5088742;28;20446;-64
2022/05/08 02:00:40;;;;;;;25.33;22.80;;;9.20;99.90;;;;;;5091913;28;20474;-64
2022/05/08 02:03:07;;;;;;;26.83;24.03;;;9.10;99.90;;;;;;5082269;28;20447;-64
2022/05/08 02:05:34;;;;;;;28.07;25.47;;;9.10;99.90;;;;;;5092527;28;20442;-63
2022/05/08 02:08:02;;;;;;;26.90;24.10;;;9.10;99.90;;;;;;5092830;28;20825;-63
2022/05/08 02:10:29;;;;;;;24.97;22.27;;;9.10;99.90;;;;;;5092314;28;20446;-63
2022/05/08 02:12:56;;;;;;;27.00;24.47;;;9.00;99.90;;;;;;5092554;28;20472;-63
2022/05/08 02:15:29;;;;;;;25.23;22.53;;;9.10;99.90;;;;;;5092408;28;20490;-63
2022/05/08 02:17:57;;;;;;;25.90;23.20;;;9.10;99.90;;;;;;5092634;28;20544;-64
2022/05/08 02:20:24;;;;;;;28.80;25.90;;;9.10;99.90;;;;;;5091933;28;20489;-63
2022/05/08 02:22:51;;;;;;;28.90;26.10;;;9.10;99.90;;;;;;5092059;28;20977;-62
2022/05/08 02:25:19;;;;;;;28.77;25.77;;;9.10;99.90;;;;;;5092372;28;20545;-63
2022/05/08 02:27:49;;;;;;;30.10;26.90;;;9.10;99.90;;;;;;5091908;28;20797;-64
2022/05/08 02:30:18;;;;;;;27.47;24.10;;;9.10;99.90;;;;;;5091754;28;20530;-63
2022/05/08 02:32:46;;;;;;;28.33;25.40;;;9.10;99.90;;;;;;5086704;28;20469;-64
2022/05/08 02:35:13;;;;;;;29.07;26.37;;;9.10;99.90;;;;;;5092097;28;20456;-63
2022/05/08 02:37:41;;;;;;;26.90;24.07;;;9.10;99.90;;;;;;5092079;28;20446;-64
2022/05/08 02:40:09;;;;;;;26.60;23.83;;;9.00;99.90;;;;;;5091548;28;20494;-64
2022/05/08 02:42:36;;;;;;;27.20;24.40;;;8.90;99.90;;;;;;5091531;28;20484;-64
2022/05/08 02:45:03;;;;;;;27.57;24.77;;;8.90;99.90;;;;;;5092125;28;20446;-63
2022/05/08 02:47:32;;;;;;;24.83;22.43;;;8.90;99.90;;;;;;5092141;28;20470;-63
2022/05/08 02:50:00;;;;;;;27.37;24.57;;;9.00;99.90;;;;;;5091501;28;20451;-63
2022/05/08 02:52:27;;;;;;;27.20;24.50;;;8.90;99.90;;;;;;5091866;28;20477;-63
2022/05/08 02:54:54;;;;;;;26.70;23.80;;;8.80;99.90;;;;;;5091405;28;20533;-64
2022/05/08 03:00:14;;;;;;;28.03;25.13;;;8.90;99.90;;;;;;5053149;28;20504;-62
2022/05/08 03:02:41;;;;;;;27.07;24.23;;;8.80;99.90;;;;;;5090844;28;20485;-64
2022/05/08 03:05:09;;;;;;;27.77;24.80;;;8.80;99.90;;;;;;5091355;28;20450;-63
2022/05/08 03:07:36;;;;;;;27.67;24.53;;;8.70;99.90;;;;;;5091293;28;20850;-63
2022/05/08 03:10:03;;;;;;;27.03;24.43;;;8.60;99.90;;;;;;5090943;28;21124;-64
2022/05/08 03:12:30;;;;;;;25.07;22.57;;;8.60;99.90;;;;;;5091564;28;20481;-63
2022/05/08 03:14:57;;;;;;;24.47;21.90;;;8.50;99.90;;;;;;5091085;28;20454;-64
2022/05/08 03:17:24;;;;;;;27.53;24.67;;;8.50;99.90;;;;;;5091199;28;20475;-63
2022/05/08 03:19:51;;;;;;;27.23;24.37;;;8.40;99.90;;;;;;5090553;28;20482;-64
2022/05/08 03:22:19;;;;;;;27.03;24.30;;;8.40;99.90;;;;;;5091124;28;20840;-63
2022/05/08 03:24:46;;;;;;;27.10;24.33;;;8.50;99.90;;;;;;5091246;28;20457;-63
2022/05/08 03:27:12;;;;;;;29.20;26.23;;;8.50;99.90;;;;;;5090809;28;20456;-64
2022/05/08 03:29:39;;;;;;;27.57;24.77;;;8.40;99.90;;;;;;5090840;28;20449;-62
2022/05/08 03:32:07;;;;;;;29.00;26.00;;;8.50;99.90;;;;;;5090493;28;20516;-63
2022/05/08 03:34:34;;;;;;;28.17;25.00;;;8.50;99.90;;;;;;5091171;28;20442;-62
2022/05/08 03:37:01;;;;;;;28.73;25.67;;;8.50;99.90;;;;;;5091251;28;20447;-62
2022/05/08 03:39:29;;;;;;;28.70;25.77;;;8.50;99.90;;;;;;5091371;28;20869;-63
2022/05/08 03:41:56;;;;;;;28.13;25.27;;;8.40;99.90;;;;;;5090588;28;20853;-63
2022/05/08 03:44:23;;;;;;;27.87;24.90;;;8.40;99.90;;;;;;5091082;28;20535;-62
2022/05/08 03:46:49;;;;;;;29.03;26.00;;;8.40;99.90;;;;;;5089990;28;20541;-63
2022/05/08 03:49:16;;;;;;;29.50;26.50;;;8.30;99.90;;;;;;5090863;28;20438;-63
2022/05/08 03:51:43;;;;;;;28.30;25.00;;;8.30;99.90;;;;;;5088752;28;20612;-62
2022/05/08 03:54:10;;;;;;;27.57;24.70;;;8.30;99.90;;;;;;5090683;28;20438;-62
2022/05/08 03:56:38;;;;;;;25.83;23.10;;;8.40;99.90;;;;;;5090789;28;21037;-63
2022/05/08 03:59:05;;;;;;;26.97;24.37;;;8.30;99.90;;;;;;5090758;28;20442;-62
2022/05/08 04:01:31;;;;;;;26.27;23.73;;;8.40;99.90;;;;;;5090071;28;20490;-63
2022/05/08 04:04:02;;;;;;;27.17;24.23;;;8.40;99.90;;;;;;5090490;28;20477;-63
2022/05/08 04:06:30;;;;;;;26.57;23.90;;;8.40;99.90;;;;;;5090609;28;20893;-63
2022/05/08 04:08:56;;;;;;;27.40;24.50;;;8.40;99.90;;;;;;5090388;28;20451;-63
2022/05/08 04:11:27;;;;;;;30.70;24.30;;;8.40;99.90;;;;;;5090130;28;21023;-62
2022/05/08 04:13:55;;;;;;;28.53;25.63;;;8.40;99.90;;;;;;5089392;28;20831;-63
2022/05/08 04:16:24;;;;;;;28.00;25.20;;;8.40;99.90;;;;;;5090520;28;20453;-63
2022/05/08 04:18:51;;;;;;;27.57;24.60;;;8.40;99.90;;;;;;5090540;28;20541;-63
2022/05/08 04:21:18;;;;;;;28.23;25.37;;;8.40;99.90;;;;;;5090136;28;20487;-63
2022/05/08 04:26:30;;;;;;;29.07;26.17;;;8.50;99.90;;;;;;5090196;28;20425;-62
2022/05/08 04:28:58;;;;;;;28.07;23.47;;;8.50;99.90;;;;;;5090227;28;20446;-63
2022/05/08 04:31:25;;;;;;;30.20;25.87;;;8.60;99.90;;;;;;5090128;28;20850;-62
2022/05/08 04:33:52;;;;;;;27.87;24.90;;;8.60;99.90;;;;;;5090421;28;20450;-62
2022/05/08 04:36:19;;;;;;;28.43;25.60;;;8.60;99.90;;;;;;5090421;28;20449;-63
2022/05/08 04:38:46;;;;;;;29.80;25.97;;;8.70;99.90;;;;;;5090374;28;20893;-63
2022/05/08 04:41:13;;;;;;;29.10;26.20;;;8.60;99.90;;;;;;5089793;28;20984;-63
2022/05/08 04:43:40;;;;;;;28.60;25.80;;;8.60;99.90;;;;;;5090575;28;20442;-61
2022/05/08 04:46:09;;;;;;;25.70;23.17;;;8.70;99.90;;;;;;5090145;28;20446;-63
2022/05/08 04:48:37;;;;;;;27.90;25.00;;;8.70;99.90;;;;;;5090375;28;20446;-64
2022/05/08 04:51:04;;;;;;;25.67;22.97;;;8.60;99.90;;;;;;5089551;28;20462;-63
2022/05/08 04:53:31;;;;;;;28.00;25.10;;;8.70;99.90;;;;;;5089822;28;20534;-64
2022/05/08 04:55:57;;;;;;;28.17;25.13;;;8.70;99.90;;;;;;5089991;28;20463;-64
2022/05/08 04:58:29;;;;;;;26.83;24.17;;;8.70;99.90;;;;;;5089776;28;20442;-63
2022/05/08 05:00:57;;;;;;;29.93;26.47;;;8.70;99.90;;;;;;5089370;28;20485;-64
2022/05/08 05:03:26;;;;;;;27.37;24.60;;;8.70;99.90;;;;;;5089706;28;21020;-64
2022/05/08 05:05:53;;;;;;;31.00;27.67;;;8.70;99.90;;;;;;5089590;28;20541;-63
2022/05/08 05:08:20;;;;;;;30.00;26.23;;;8.80;99.90;;;;;;5089917;28;20531;-64
2022/05/08 05:10:47;;;;;;;27.50;24.70;;;8.80;99.90;;;;;;5089478;28;20819;-63
2022/05/08 05:13:14;;;;;;;29.40;24.23;;;8.90;99.90;;;;;;5089914;28;20449;-63
2022/05/08 05:15:41;;;;;;;28.30;25.60;;;9.00;99.90;;;;;;5089668;28;20454;-63
2022/05/08 05:18:08;;;;;;;24.97;22.33;;;9.00;99.90;;;;;;5089593;28;20886;-64
2022/05/08 05:20:37;;;;;;;24.30;21.90;;;9.10;99.90;;;;;;5089014;28;21000;-63
2022/05/08 05:23:04;;;;;;;26.50;23.90;;;9.10;99.90;;;;;;5089527;28;20446;-62
2022/05/08 05:25:31;;;;;;;25.30;22.90;;;9.30;99.90;;;;;;5090493;28;20446;-64
2022/05/08 05:27:58;;;;;;;25.27;22.63;;;9.30;99.90;;;;;;5090093;28;20460;-63
2022/05/08 05:30:25;;;;;;;26.27;23.57;;;9.30;99.90;;;;;;5093358;28;20919;-61
2022/05/08 05:32:52;;;;;;;24.70;22.30;;;9.30;99.90;;;;;;5093327;28;20474;-63
2022/05/08 05:35:18;;;;;;;26.93;22.47;;;9.40;99.90;;;;;;5093069;28;20441;-63
2022/05/08 05:37:47;;;;;;;24.40;21.80;;;9.40;99.90;;;;;;5093542;28;20446;-63
2022/05/08 05:40:13;;;;;;;24.73;22.20;;;9.50;99.90;;;;;;5093234;28;20490;-63
2022/05/08 05:42:40;;;;;;;24.03;21.63;;;9.50;99.90;;;;;;5093198;28;21059;-63
2022/05/08 05:45:08;;;;;;;26.03;23.43;;;9.50;99.90;;;;;;5093427;28;20469;-63
2022/05/08 05:47:49;;;;;;;26.40;23.67;;;9.50;99.90;;;;;;5092837;28;20454;-63
2022/05/08 05:50:16;;;;;;;24.53;21.90;;;9.70;99.90;;;;;;5089548;28;20433;-63
2022/05/08 05:52:43;;;;;;;24.87;22.23;;;9.80;99.90;;;;;;5093275;28;20466;-63
2022/05/08 05:55:12;;;;;;;23.77;21.47;;;9.90;99.90;;;;;;5091577;28;20438;-63
2022/05/08 05:57:39;;;;;;;22.23;20.20;;;9.90;99.90;;;;;;5092949;28;20457;-63
2022/05/08 06:00:09;;;;;;;22.93;20.87;;;10.00;99.90;;;;;;5092358;28;20517;-61
2022/05/08 06:02:36;;;;;;;22.57;20.50;;;10.10;99.90;;;;;;5093302;28;20470;-63
2022/05/08 06:05:03;;;;;;;24.80;22.40;;;10.20;99.90;;;;;;5093043;28;20438;-63
2022/05/08 06:07:30;;;;;;;23.60;21.50;;;10.30;99.90;;;;;;5093110;28;20456;-64
2022/05/08 06:09:57;;;;;;;23.20;21.07;;;10.40;99.90;;;;;;5092520;28;20456;-63
2022/05/08 06:12:26;;;;;;;22.50;20.40;;;10.50;99.90;;;;;;5092902;28;20462;-63
2022/05/08 06:14:53;;;;;;;22.90;20.80;;;10.70;99.90;;;;;;5092582;28;20457;-63
2022/05/08 06:17:20;;;;;;;20.87;18.93;;;10.90;99.90;;;;;;5092864;28;20450;-63
2022/05/08 06:19:47;;;;;;;20.53;18.43;;;11.00;99.90;;;;;;5092380;28;20446;-62
2022/05/08 06:22:13;;;;;;;22.50;20.33;;;11.20;99.90;;;;;;5092318;28;20482;-64
2022/05/08 06:24:40;;;;;;;21.63;19.70;;;11.20;99.90;;;;;;5092537;28;20452;-63
2022/05/08 06:27:07;;;;;;;21.83;19.73;;;11.30;99.90;;;;;;5092316;28;20457;-63
2022/05/08 06:29:36;;;;;;;19.73;17.63;;;11.40;99.90;;;;;;5092661;28;20453;-63
2022/05/08 06:32:03;;;;;;;21.73;19.63;;;11.50;99.90;;;;;;5092242;28;20482;-63
2022/05/08 06:34:30;;;;;;;21.63;19.67;;;11.50;99.90;;;;;;5092421;28;20443;-64
2022/05/08 06:36:57;;;;;;;20.13;18.43;;;11.40;99.90;;;;;;5091552;28;20452;-61
2022/05/08 06:39:24;;;;;;;21.40;19.17;;;11.60;99.90;;;;;;5092095;28;20450;-64
2022/05/08 06:41:51;;;;;;;19.87;18.13;;;11.90;99.90;;;;;;5091751;28;20573;-64
2022/05/08 06:44:18;;;;;;;20.33;18.40;;;12.10;99.90;;;;;;5092386;28;20960;-64
2022/05/08 06:46:46;;;;;;;20.60;18.80;;;12.30;99.90;;;;;;5092334;28;20446;-64
2022/05/08 06:49:13;;;;;;;22.20;20.30;;;12.50;99.90;;;;;;5091924;28;20976;-63
2022/05/08 06:51:39;;;;;;;22.33;20.13;;;12.60;99.90;;;;;;5091675;28;21189;-63
2022/05/08 06:54:06;;;;;;;22.57;20.40;;;12.70;99.90;;;;;;5092253;28;20446;-63
2022/05/08 06:56:35;;;;;;;22.20;20.10;;;12.70;99.90;;;;;;5092244;28;20449;-64
2022/05/08 07:01:49;;;;;;;22.23;20.23;;;13.00;99.90;;;;;;5091694;28;20476;-64
2022/05/08 07:04:16;;;;;;;21.33;19.40;;;13.10;99.90;;;;;;5092333;28;20453;-64
2022/05/08 07:06:43;;;;;;;21.50;19.60;;;13.10;99.90;;;;;;5091729;28;20454;-63
2022/05/08 07:09:10;;;;;;;23.20;21.10;;;13.30;99.90;;;;;;5091841;28;20541;-62
2022/05/08 07:11:37;;;;;;;22.77;20.80;;;13.50;99.90;;;;;;5091591;28;20895;-63
2022/05/08 07:14:04;;;;;;;23.43;21.33;;;13.60;99.90;;;;;;5091751;28;20969;-63
2022/05/08 07:16:31;;;;;;;21.70;19.70;;;13.80;99.90;;;;;;5091975;28;20537;-63
2022/05/08 07:18:59;;;;;;;21.70;19.57;;;14.00;99.90;;;;;;5091801;28;20441;-63
2022/05/08 07:21:26;;;;;;;21.33;19.40;;;14.10;99.90;;;;;;5091469;28;21005;-62
2022/05/08 07:23:55;;;;;;;20.50;18.60;;;14.20;99.90;;;;;;5091840;28;20454;-63
2022/05/08 07:26:21;;;;;;;21.40;19.50;;;14.50;99.90;;;;;;5091563;28;20980;-63
2022/05/08 07:28:48;;;;;;;20.40;18.60;;;14.60;99.90;;;;;;5091396;28;20917;-63
2022/05/08 07:31:15;;;;;;;21.70;19.70;;;14.80;99.90;;;;;;5090993;28;20465;-64
2022/05/08 07:33:42;;;;;;;21.33;19.43;;;15.00;99.90;;;;;;5091124;28;20457;-63
2022/05/08 07:36:15;;;;;;;21.63;19.73;;;15.20;99.90;;;;;;5091215;28;20537;-62
2022/05/08 07:38:44;;;;;;;21.13;19.17;;;15.40;99.90;;;;;;5091383;28;20465;-63
2022/05/08 07:41:11;;;;;;;20.13;18.10;;;15.60;99.90;;;;;;5090529;28;21014;-64
2022/05/08 07:43:38;;;;;;;20.67;18.70;;;15.80;99.90;;;;;;5091400;28;20435;-64
2022/05/08 07:46:06;;;;;;;19.50;17.70;;;15.90;99.90;;;;;;5090041;28;20481;-64
2022/05/08 07:48:34;;;;;;;20.40;18.80;;;16.10;99.90;;;;;;5090431;28;20441;-63
2022/05/08 07:51:02;;;;;;;21.63;19.70;;;16.30;99.90;;;;;;5090689;28;20540;-64
2022/05/08 07:53:32;;;;;;;20.30;18.57;;;16.30;99.90;;;;;;5091575;28;20504;-64
2022/05/08 07:55:59;;;;;;;19.83;18.00;;;16.50;99.90;;;;;;5090974;28;20441;-64
2022/05/08 07:58:31;;;;;;;21.07;19.17;;;16.60;99.90;;;;;;5091208;28;20446;-64
2022/05/08 08:00:58;;;;;;;18.02;16.42;;;16.80;99.90;;;;;;5090193;28;20456;-63
2022/05/08 08:03:28;;;;;;;19.70;17.80;;;16.90;99.90;;;;;;5090891;28;20219;-64
2022/05/08 08:05:56;;;;;;;17.80;16.30;;;17.00;99.90;;;;;;5090883;28;20871;-65
2022/05/08 08:08:25;;;;;;;19.80;18.00;;;17.30;99.90;;;;;;5090647;28;20450;-64
2022/05/08 08:10:56;;;;;;;21.30;19.50;;;17.40;99.90;;;;;;5090221;28;20454;-64
2022/05/08 08:13:24;;;;;;;20.33;18.53;;;17.10;99.90;;;;;;5086670;28;20450;-64
2022/05/08 08:15:51;;;;;;;19.90;18.03;;;16.90;99.90;;;;;;5081184;28;20458;-64
2022/05/08 08:18:18;;;;;;;20.00;18.37;;;16.80;99.90;;;;;;5078222;28;20446;-63
2022/05/08 08:20:46;;;;;;;18.50;16.80;;;16.70;99.90;;;;;;5079196;28;20442;-65
2022/05/08 08:23:13;;;;;;;19.80;17.70;;;17.00;99.90;;;;;;5079844;28;20454;-63
2022/05/08 08:25:41;;;;;;;19.53;17.93;;;17.30;99.90;;;;;;5079513;28;20477;-64
2022/05/08 08:28:09;;;;;;;17.53;16.07;;;17.60;99.90;;;;;;5087102;28;20819;-64
2022/05/08 08:30:36;;;;;;;19.73;18.03;;;17.90;99.90;;;;;;5089359;28;20477;-64
2022/05/08 08:33:03;;;;;;;18.07;16.37;;;18.10;99.90;;;;;;5090297;28;20442;-64
2022/05/08 08:35:30;;;;;;;19.63;17.93;;;18.40;99.90;;;;;;5090387;28;20452;-64
2022/05/08 08:37:57;;;;;;;17.67;16.10;;;18.80;99.90;;;;;;5090163;28;20493;-64
2022/05/08 08:40:24;;;;;;;17.50;15.90;;;18.50;99.90;;;;;;5089689;28;20949;-64
2022/05/08 08:42:51;;;;;;;17.07;15.60;;;18.20;99.90;;;;;;5089872;28;20492;-65
2022/05/08 08:48:16;;;;;;;16.27;14.77;;;18.20;99.90;;;;;;5090141;28;20420;-64
2022/05/08 08:50:46;;;;;;;18.27;16.67;;;17.90;99.90;;;;;;5089640;28;20446;-64
2022/05/08 08:53:13;;;;;;;17.80;16.27;;;18.00;99.90;;;;;;5089776;28;20452;-64
2022/05/08 08:55:40;;;;;;;19.07;17.37;;;17.90;99.90;;;;;;5089787;28;20442;-63
2022/05/08 08:58:07;;;;;;;19.07;17.40;;;18.00;99.90;;;;;;5086884;28;20571;-66
2022/05/08 09:00:35;;;;;;;18.07;16.47;;;18.10;99.90;;;;;;5080756;28;20486;-63
2022/05/08 09:03:02;;;;;;;18.10;16.30;;;18.10;99.90;;;;;;5084422;28;20478;-66
2022/05/08 09:05:31;;;;;;;16.97;15.33;;;18.40;99.90;;;;;;5079071;28;20457;-64
2022/05/08 09:07:59;;;;;;;17.60;16.20;;;18.40;99.90;;;;;;5082271;28;20450;-65
2022/05/08 09:10:35;;;;;;;19.07;17.17;;;18.40;99.90;;;;;;5077700;28;20458;-63
2022/05/08 09:13:06;;;;;;;16.90;15.40;;;18.40;99.90;;;;;;5078692;28;20541;-65
2022/05/08 09:15:36;;;;;;;18.00;16.40;;;18.50;99.90;;;;;;5088551;28;20450;-64
2022/05/08 09:18:05;;;;;;;16.73;15.33;;;18.60;99.90;;;;;;5084423;28;20443;-64
2022/05/08 09:20:34;;;;;;;16.73;15.40;;;18.60;99.90;;;;;;5080587;28;20541;-65
2022/05/08 09:23:03;;;;;;;15.50;14.20;;;19.00;99.90;;;;;;5084024;28;20577;-64
2022/05/08 09:25:50;;;;;;;15.27;13.97;;;19.10;99.90;;;;;;5087513;28;20438;-63
2022/05/08 09:28:18;;;;;;;14.77;13.37;;;19.40;99.90;;;;;;5089640;28;20438;-63
2022/05/08 09:31:05;;;;;;;15.37;14.07;;;19.70;99.90;;;;;;5088973;28;20877;-63
2022/05/08 09:33:33;;;;;;;14.67;13.47;;;20.20;99.90;;;;;;5077448;28;20454;-64
2022/05/08 09:36:02;;;;;;;14.93;13.70;;;20.80;99.90;;;;;;5077574;28;20489;-62
2022/05/08 09:38:46;;;;;;;16.30;14.90;;;21.00;99.90;;;;;;5078359;28;20988;-64
2022/05/08 09:41:14;;;;;;;15.60;14.30;;;20.60;99.90;;;;;;5084240;28;20858;-63
2022/05/08 09:43:42;;;;;;;15.53;14.13;;;20.20;99.90;;;;;;5081361;28;20442;-63
2022/05/08 09:46:10;;;;;;;15.20;13.90;;;20.20;99.90;;;;;;5083188;28;20461;-64
2022/05/08 09:48:38;;;;;;;16.10;14.60;;;20.40;99.90;;;;;;5086592;28;20450;-63
2022/05/08 09:51:07;;;;;;;13.53;12.40;;;20.80;99.90;;;;;;5086134;28;20486;-64
2022/05/08 09:53:35;;;;;;;14.67;13.30;;;21.30;99.90;;;;;;5083864;28;20520;-63
2022/05/08 09:56:03;;;;;;;13.27;12.27;;;21.50;99.90;;;;;;5088242;28;20870;-63
2022/05/08 09:58:31;;;;;;;15.50;14.30;;;21.70;99.90;;;;;;5087559;28;20442;-63
2022/05/08 10:00:58;;;;;;;14.03;12.90;;;22.30;99.90;;;;;;5088676;28;20988;-64
2022/05/08 10:03:27;;;;;;;15.77;14.47;;;22.20;99.90;;;;;;5085789;28;20841;-63
2022/05/08 10:05:55;;;;;;;15.33;13.90;;;22.10;99.90;;;;;;5084326;28;20450;-63
2022/05/08 10:08:23;;;;;;;15.07;13.73;;;21.70;99.90;;;;;;5085627;28;20446;-63
2022/05/08 10:14:04;;;;;;;15.30;13.77;;;21.60;99.90;;;;;;5086348;28;20427;-64
2022/05/08 10:16:51;;;;;;;12.83;11.83;;;21.20;99.90;;;;;;5087570;28;20457;-63
2022/05/08 10:19:48;;;;;;;13.47;12.37;;;21.20;99.90;;;;;;5086959;28;20546;-64
2022/05/08 10:22:15;;;;;;;12.87;11.87;;;22.00;99.90;;;;;;5091303;28;20493;-64
2022/05/08 10:24:46;;;;;;;13.03;12.00;;;22.90;99.90;;;;;;5083677;28;20509;-65
2022/05/08 10:27:15;;;;;;;13.17;12.17;;;23.40;99.90;;;;;;5074950;28;20873;-65
2022/05/08 10:29:42;;;;;;;10.53;9.63;;;23.40;99.90;;;;;;5090247;28;20534;-65
2022/05/08 10:32:10;;;;;;;10.47;9.57;;;23.40;99.90;;;;;;5092062;28;20454;-65
2022/05/08 10:34:40;;;;;;;11.20;10.30;;;23.80;99.90;;;;;;5092386;28;20454;-65
2022/05/08 10:37:28;;;;;;;11.57;10.47;;;24.20;99.90;;;;;;5081817;28;21182;-65
2022/05/08 10:39:55;;;;;;;10.67;9.87;;;24.20;99.60;;;;;;5082773;28;20843;-65
2022/05/08 10:42:43;;;;;;;8.97;8.17;;;24.50;99.90;;;;;;5084115;28;20481;-65
2022/05/08 10:45:40;;;;;;;9.07;8.17;;;25.00;98.80;;;;;;5090243;28;20438;-66
2022/05/08 10:48:10;;;;;;;7.13;5.90;;;25.00;93.90;;;;;;5088552;28;21186;-65
2022/05/08 10:50:37;;;;;;;7.93;6.10;;;24.00;92.60;;;;;;5083869;28;20473;-65
2022/05/08 10:53:06;;;;;;;6.57;5.97;;;23.40;94.60;;;;;;5084685;28;20469;-64
2022/05/08 10:55:33;;;;;;;9.40;6.00;;;23.30;95.30;;;;;;5089682;28;20461;-64
2022/05/08 10:58:00;;;;;;;7.63;5.80;;;23.50;96.40;;;;;;5089292;28;20454;-65
2022/05/08 11:00:28;;;;;;;6.53;6.00;;;24.20;95.90;;;;;;5083728;28;20458;-62
2022/05/08 11:02:56;;;;;;;7.40;6.30;;;24.70;95.10;;;;;;5085322;28;20486;-64
2022/05/08 11:05:25;;;;;;;7.03;6.43;;;25.10;93.80;;;;;;5083689;28;20442;-64
2022/05/08 11:07:53;;;;;;;7.40;6.70;;;25.30;93.90;;;;;;5085705;28;20457;-64
2022/05/08 11:10:26;;;;;;;7.67;6.40;;;25.60;93.50;;;;;;5085994;28;20438;-64
2022/05/08 11:12:58;;;;;;;7.23;6.60;;;25.40;90.80;;;;;;5081492;28;20463;-64
2022/05/08 11:15:25;;;;;;;7.07;6.47;;;25.30;91.30;;;;;;5083753;28;20442;-64
2022/05/08 11:18:09;;;;;;;7.83;7.10;;;25.60;92.00;;;;;;5082461;28;20446;-64
2022/05/08 11:20:38;;;;;;;8.57;7.50;;;25.60;90.40;;;;;;5083870;28;20574;-63
2022/05/08 11:23:05;;;;;;;7.70;7.00;;;25.70;91.00;;;;;;5080903;28;20482;-64
2022/05/08 11:25:34;;;;;;;7.07;6.47;;;26.10;91.60;;;;;;5078542;28;20501;-64
2022/05/08 11:28:01;;;;;;;8.27;6.60;;;26.40;91.10;;;;;;5079286;28;20444;-64
2022/05/08 11:30:32;;;;;;;9.60;6.53;;;26.90;91.80;;;;;;5079270;28;20460;-64
2022/05/08 11:36:07;;;;;;;7.93;7.17;;;26.60;87.50;;;;;;5091106;28;20424;-63
2022/05/08 11:38:40;;;;;;;7.70;7.00;;;26.50;88.80;;;;;;5089770;28;20827;-64
2022/05/08 11:41:09;;;;;;;8.27;7.47;;;26.20;84.80;;;;;;5090598;28;20907;-62
2022/05/08 11:43:40;;;;;;;6.60;6.00;;;26.10;88.50;;;;;;5090496;28;20481;-64
2022/05/08 11:46:08;;;;;;;9.10;7.03;;;25.90;85.80;;;;;;5091022;28;20871;-64
2022/05/08 11:48:40;;;;;;;7.57;6.80;;;26.20;86.40;;;;;;5090892;28;20450;-64
2022/05/08 11:51:07;;;;;;;7.57;6.90;;;25.70;90.70;;;;;;5090543;28;20483;-64
2022/05/08 11:53:46;;;;;;;7.33;6.53;;;25.30;89.40;;;;;;5088871;28;20476;-65
2022/05/08 11:56:28;;;;;;;8.03;7.23;;;25.30;90.50;;;;;;5077839;28;20475;-63
2022/05/08 11:58:56;;;;;;;7.00;6.40;;;26.00;88.70;;;;;;5079071;28;21123;-64
2022/05/08 12:01:31;;;;;;;6.40;5.90;;;26.90;87.40;;;;;;5080145;28;20592;-65
2022/05/08 12:04:19;;;;;;;7.80;6.97;;;27.70;83.30;;;;;;5087002;28;20540;-65
2022/05/08 12:06:56;;;;;;;7.40;6.70;;;28.50;82.80;;;;;;5076486;28;20541;-64
2022/05/08 12:09:23;;;;;;;6.97;6.37;;;28.00;77.40;;;;;;5090105;28;20957;-64
2022/05/08 12:11:51;;;;;;;8.77;7.93;;;26.60;82.60;;;;;;5089059;28;20465;-64
2022/05/08 12:14:30;;;;;;;7.47;6.87;;;26.20;90.40;;;;;;5089949;28;20458;-65
2022/05/08 12:17:02;;;;;;;8.17;7.37;;;26.90;84.60;;;;;;5090586;28;20458;-65
2022/05/08 12:19:30;;;;;;;7.63;6.93;;;27.60;81.00;;;;;;5091029;28;20451;-65
2022/05/08 12:21:57;;;;;;;7.50;6.33;;;28.30;83.40;;;;;;5088475;28;20522;-65
2022/05/08 12:24:23;;;;;;;6.87;6.27;;;28.30;73.60;;;;;;5089688;28;20499;-65
2022/05/08 12:26:53;;;;;;;6.93;6.23;;;27.40;76.20;;;;;;5089854;28;20446;-64
2022/05/08 12:29:21;;;;;;;6.63;5.80;;;27.00;81.90;;;;;;5069805;28;20451;-66
2022/05/08 12:31:50;;;;;;;6.97;6.27;;;26.60;80.40;;;;;;5069412;28;21065;-65
2022/05/08 12:34:18;;;;;;;7.00;6.23;;;26.10;80.60;;;;;;5069650;28;21007;-65
2022/05/08 12:36:45;;;;;;;6.63;6.03;;;25.80;81.60;;;;;;5069185;28;20443;-64
2022/05/08 12:39:12;;;;;;;7.27;6.53;;;24.70;85.50;;;;;;5069776;28;20458;-65
2022/05/08 12:41:39;;;;;;;7.90;7.20;;;24.90;87.60;;;;;;5070278;28;20475;-65
2022/05/08 12:44:08;;;;;;;7.87;6.87;;;25.30;88.80;;;;;;5085761;28;20992;-65
2022/05/08 12:46:36;;;;;;;11.40;10.27;;;26.00;84.70;;;;;;5085528;28;20462;-65
2022/05/08 12:49:03;;;;;;;11.60;10.50;;;26.60;85.20;;;;;;5089218;28;20446;-65
2022/05/08 12:51:32;;;;;;;7.63;6.93;;;27.30;82.00;;;;;;5083858;28;20590;-63
2022/05/08 12:54:00;;;;;;;10.20;9.23;;;27.90;80.20;;;;;;5094636;22;20494;-72
2022/05/08 12:56:27;;;;;;;8.00;6.83;;;28.30;73.50;;;;;;5067932;28;20467;-71
2022/05/08 13:01:40;;;;;;;11.00;10.07;;;26.40;78.40;;;;;;5069392;28;20993;-72
2022/05/08 13:04:07;;;;;;;9.27;8.40;;;26.20;83.50;;;;;;5068934;28;20485;-72